Flight Track Log - Related Links

Times and Time Zones

All times are in EDT time to prevent confusion due to time zone crossing. See the LYM1725 flight status page for this flight to view local times or setup timezone preferences in your user account.

Time Position Orientation Groundspeed Altitude Reporting Facility
EDT Latitude Longitude Course Direction KTS MPH feet Rate Location/Type
Thu 08:36:50 AM 39.8833 -104.6667 349° North 152 175 7,600  Level Denver TRACON
Thu 08:37:50 AM 39.9167 -104.6833 339° North 163 188 10,100 1,750 Climbing Denver TRACON
Thu 08:38:50 AM 39.9667 -104.7167 333° Northwest 214 246 11,100 1,663 Climbing Denver TRACON
Thu 08:39:13 AM 39.9942 -104.7175 359° North 207 238 12,400 2,143 Climbing Denver Center
Thu 08:40:14 AM 40.0497 -104.7194 358° North 203 234 14,100 1,587 Climbing Denver Center
Thu 08:41:14 AM 40.0936 -104.7158 North 206 237 15,600 1,574 Climbing Denver Center
Thu 08:42:00 AM 40.1530 -104.8049 349° North  Level FlightAware Approximate
Thu 08:42:16 AM 40.1642 -104.7133 North 210 242 17,300  Level Denver Center
Thu 08:43:29 AM 40.2261 -104.7258 351° North 212 244 17,900 985 Climbing Denver Center
Thu 08:44:30 AM 40.2608 -104.8006 301° West 206 237 19,500 1,082 Climbing Denver Center
Thu 08:45:31 AM 40.3006 -104.8703 307° West 229 264 20,100 197 Climbing Denver Center
Thu 08:46:32 AM 40.3658 -104.9028 339° North 255 293 19,900 -49 Descending Denver Center
Thu 08:47:33 AM 40.4364 -104.9258 346° North 262 302 20,000 49 Climbing Denver Center
Thu 08:48:34 AM 40.5069 -104.9511 345° North 262 302 20,000  Level Denver Center
Thu 08:49:35 AM 40.5819 -104.9875 340° North 267 307 20,000  Level Denver Center
Thu 08:50:36 AM 40.6519 -105.0169 342° North 261 300 20,000  Level Denver Center
Thu 08:51:37 AM 40.7050 -105.0408 341° North 262 302 20,000  Level Denver Center
Thu 08:52:38 AM 40.7833 -105.0736 342° North 255 293 20,000  Level Denver Center
Thu 08:53:39 AM 40.8356 -105.1375 317° Northwest 254 292 20,000  Level Denver Center
Thu 08:54:40 AM 40.8950 -105.2211 313° West 264 304 20,000 -49 Level Denver Center
Thu 08:55:41 AM 40.9528 -105.2811 322° Northwest 264 304 19,900 49 Descending Denver Center
Thu 08:56:42 AM 41.0061 -105.3472 317° Northwest 263 303 20,100 49 Climbing Denver Center
Thu 08:57:44 AM 41.0492 -105.4100 312° West 260 299 20,000 -98 Descending Denver Center
Thu 08:58:45 AM 41.1039 -105.4892 313° West 261 300 19,900 -49 Descending Denver Center
Thu 08:59:46 AM 41.1522 -105.5542 315° West 259 298 19,900 49 Level Denver Center
Thu 09:00:47 AM 41.2033 -105.6369 309° West 260 299 20,000 49 Climbing Denver Center
Thu 09:01:48 AM 41.2514 -105.7031 314° West 259 298 20,000  Level Denver Center
Thu 09:02:49 AM 41.3014 -105.7653 317° Northwest 258 297 20,000  Level Denver Center
Thu 09:03:50 AM 41.3550 -105.8458 312° West 259 298 20,000 -98 Level Denver Center
Thu 09:04:51 AM 41.3967 -105.9206 307° West 260 299 19,800 -49 Descending Denver Center
Thu 09:05:52 AM 41.4381 -105.9919 308° West 258 297 19,900 45 Climbing Denver Center
Thu 09:07:05 AM 41.4947 -106.0636 317° Northwest 252 290 19,900 45 Level Denver Center
Thu 09:08:06 AM 41.5417 -106.1278 314° West 251 289 20,000 49 Climbing Denver Center
Thu 09:09:08 AM 41.5950 -106.2272 306° West 255 293 20,000  Level Denver Center
Thu 09:10:09 AM 41.6353 -106.3003 306° West 254 292 20,000 -49 Level Denver Center
Thu 09:11:10 AM 41.6808 -106.3664 313° West 253 291 19,900  Descending Denver Center
Thu 09:12:11 AM 41.7353 -106.4358 316° Northwest 243 280 20,000 -49 Climbing Denver Center
Thu 09:13:12 AM 41.7831 -106.4992 315° West 249 287 19,800 49 Descending Denver Center
Thu 09:14:13 AM 41.8292 -106.5664 313° West 250 288 20,100 98 Climbing Denver Center
Thu 09:15:14 AM 41.8803 -106.6392 313° West 245 282 20,000 -49 Descending Denver Center
Thu 09:16:15 AM 41.9256 -106.7006 315° West 239 275 20,000  Level Denver Center
Thu 09:17:16 AM 41.9786 -106.7728 315° West 243 280 20,000 -49 Level Denver Center
Thu 09:18:17 AM 42.0217 -106.8383 311° West 244 281 19,900 -49 Descending Denver Center
Thu 09:19:18 AM 42.0669 -106.9008 314° West 244 281 19,900  Level Denver Center
Thu 09:20:18 AM 42.1158 -106.9769 311° West 242 278 19,900 -50 Level Denver Center
Thu 09:21:19 AM 42.1589 -107.0414 312° West 242 278 19,800 49 Descending Denver Center
Thu 09:22:20 AM 42.2000 -107.1083 310° West 243 280 20,000 49 Climbing Denver Center
Thu 09:23:21 AM 42.2483 -107.1789 313° West 232 267 19,900 -49 Descending Denver Center
Thu 09:24:22 AM 42.2892 -107.2472 309° West 242 278 19,900 -49 Level Denver Center
Thu 09:25:23 AM 42.3314 -107.3086 313° West 235 270 19,800 -492 Descending Denver Center
Thu 09:26:24 AM 42.3831 -107.3886 311° West 254 292 18,900 -857 Descending Denver Center
Thu 09:26:40 AM 42.3967 -107.4128 307° West 252 290 18,700  Descending Salt Lake Center
Thu 09:27:42 AM 42.4406 -107.4853 309° West 258 297 18,900 146 Climbing Salt Lake Center
Thu 09:28:43 AM 42.4842 -107.5517 312° West 254 292 19,000 -197 Climbing Salt Lake Center
Thu 09:29:44 AM 42.5311 -107.6217 312° West 235 270 18,500 -492 Descending Salt Lake Center
Thu 09:30:45 AM 42.5789 -107.6889 314° West 246 283 18,000 -689 Descending Salt Lake Center
Thu 09:31:46 AM 42.6261 -107.7697 308° West 263 303 17,100 -1,073 Descending Salt Lake Center
Thu 09:32:48 AM 42.6872 -107.8594 313° West 282 325 15,800 -1,122 Descending Salt Lake Center
Thu 09:33:49 AM 42.7414 -107.9333 315° West 288 331 14,800 -1,082 Descending Salt Lake Center
Thu 09:34:50 AM 42.8044 -108.0139 317° Northwest 281 323 13,600 -1,180 Descending Salt Lake Center
Thu 09:35:51 AM 42.8578 -108.0819 317° Northwest 278 320 12,400 -1,180 Descending Salt Lake Center

Login

Don't have an account? Register now (free) for customized features, flight alerts, and more!